Time;durP1;ratioP1;P1;durP2;ratioP2;P2;SDS_P1;SDS_P2;PMS_P1;PMS_P2;Temp;Humidity;BMP_temperature;BMP_pressure;BME280_temperature;BME280_humidity;BME280_pressure;Samples;Min_cycle;Max_cycle;Signal;HPM_P1;HPM_P2
2023/02/22 00:02:12;;;;;;;7.37;5.23;;;7.70;99.90;;;-141.84;76.96;19265.13;5029007;28;20245;-60
2023/02/22 00:04:42;;;;;;;7.57;5.70;;;7.70;99.90;;;-141.84;76.81;19212.31;5029259;28;20532;-64
2023/02/22 00:07:10;;;;;;;8.57;5.83;;;7.60;99.90;;;-141.84;76.86;19212.31;5029176;28;20718;-62
2023/02/22 00:09:38;;;;;;;7.87;6.13;;;7.60;99.90;;;-141.84;77.20;19214.34;5029225;28;20233;-57
2023/02/22 00:12:07;;;;;;;7.50;6.00;;;7.60;99.90;;;-141.84;77.39;19220.44;5029105;28;20708;-56
2023/02/22 00:14:35;;;;;;;7.50;5.50;;;7.60;99.90;;;-141.84;77.52;19222.47;5029787;28;20210;-55
2023/02/22 00:17:03;;;;;;;8.93;5.87;;;7.60;99.90;;;-141.84;77.58;19177.75;5028536;28;20253;-52
2023/02/22 00:19:31;;;;;;;6.67;5.70;;;7.60;99.90;;;-141.84;77.56;19212.31;5029081;28;20287;-52
2023/02/22 00:22:01;;;;;;;6.97;5.63;;;7.60;99.90;;;-141.84;77.58;19234.66;5029029;28;20226;-57
2023/02/22 00:24:34;;;;;;;7.53;5.70;;;7.50;99.90;;;-141.84;77.80;19212.31;5031244;28;20611;-53
2023/02/22 00:27:03;;;;;;;7.63;6.20;;;7.60;99.90;;;-141.84;77.90;19222.47;5032813;28;20189;-53
2023/02/22 00:29:33;;;;;;;7.63;5.33;;;7.60;99.90;;;-141.84;77.95;19200.13;5033457;28;20684;-53
2023/02/22 00:32:01;;;;;;;7.70;5.93;;;7.60;99.90;;;-141.84;77.69;19236.69;5032237;28;20837;-53
2023/02/22 00:34:29;;;;;;;9.23;6.20;;;7.60;99.90;;;-141.84;77.90;19192.00;5032633;28;20310;-53
2023/02/22 00:37:01;;;;;;;7.03;5.70;;;7.60;99.90;;;-141.84;77.83;19212.31;5032518;28;20241;-55
2023/02/22 00:39:31;;;;;;;6.60;5.53;;;7.70;99.90;;;-141.84;77.83;19238.72;5032651;28;20229;-55
2023/02/22 00:41:59;;;;;;;9.03;6.33;;;7.70;99.90;;;-141.84;77.64;19220.44;5032566;28;20217;-52
2023/02/22 00:44:27;;;;;;;8.77;6.53;;;7.80;99.90;;;-141.84;77.50;19216.38;5032965;28;20667;-54
2023/02/22 00:46:55;;;;;;;7.80;6.63;;;7.80;99.90;;;-141.84;77.61;19232.63;5032137;28;20237;-50
2023/02/22 00:49:24;;;;;;;8.40;6.40;;;7.80;99.90;;;-141.84;77.48;19238.72;5032068;28;20713;-56
2023/02/22 00:51:53;;;;;;;8.20;6.43;;;7.90;99.90;;;-141.84;77.37;19234.66;5032432;28;20230;-54
2023/02/22 00:54:21;;;;;;;7.67;5.70;;;7.90;99.90;;;-141.84;76.93;19246.84;5032364;28;20256;-53
2023/02/22 00:56:52;;;;;;;7.90;5.53;;;7.90;99.90;;;-141.84;77.17;19216.38;5032420;28;20252;-55
2023/02/22 00:59:20;;;;;;;7.63;5.27;;;7.90;99.90;;;-141.84;77.43;19220.44;5032162;28;20222;-53
2023/02/22 01:01:48;;;;;;;8.80;6.30;;;7.90;99.90;;;-141.84;77.39;19238.72;5031875;28;20226;-53
2023/02/22 01:04:17;;;;;;;8.27;6.47;;;7.90;99.90;;;-141.84;77.17;19210.28;5031934;28;20242;-52
2023/02/22 01:06:45;;;;;;;8.30;6.30;;;8.00;99.90;;;-141.84;77.01;19250.91;5031701;28;20234;-55
2023/02/22 01:09:13;;;;;;;7.40;6.00;;;8.00;99.90;;;-141.84;77.32;19238.72;5032049;28;20210;-53
2023/02/22 01:11:41;;;;;;;9.03;6.27;;;8.00;99.90;;;-141.84;77.42;19228.56;5032266;28;20659;-55
2023/02/22 01:14:11;;;;;;;7.67;6.27;;;8.00;99.90;;;-141.84;77.45;19232.63;5031729;28;20229;-52
2023/02/22 01:16:39;;;;;;;7.87;6.33;;;8.00;99.90;;;-141.84;77.44;19226.53;5031497;28;20252;-53
2023/02/22 01:19:07;;;;;;;8.37;6.63;;;8.00;99.90;;;-141.84;77.25;19236.69;5032231;28;20321;-54
2023/02/22 01:21:35;;;;;;;7.47;6.20;;;8.00;99.90;;;-141.84;76.98;19238.72;5031610;28;20237;-54
2023/02/22 01:24:04;;;;;;;7.57;5.80;;;8.00;99.90;;;-141.84;77.22;19216.38;5031757;28;20222;-53
2023/02/22 01:26:32;;;;;;;6.93;5.97;;;8.00;99.90;;;-141.84;77.69;19216.38;5032223;28;20209;-51
2023/02/22 01:29:01;;;;;;;8.83;6.27;;;8.00;99.90;;;-141.84;78.02;19218.41;5031604;28;20413;-53
2023/02/22 01:31:30;;;;;;;7.40;6.13;;;8.00;99.90;;;-141.84;78.39;19234.66;5031306;28;20222;-52
2023/02/22 01:33:58;;;;;;;7.50;5.80;;;8.00;99.90;;;-141.84;78.55;19228.56;5031558;28;20238;-53
2023/02/22 01:36:26;;;;;;;7.20;6.13;;;7.90;99.90;;;-141.84;78.71;19222.47;5031456;28;20240;-53
2023/02/22 01:38:54;;;;;;;7.87;6.20;;;7.90;99.90;;;-141.84;78.78;19202.16;5032412;28;20202;-52
2023/02/22 01:41:22;;;;;;;8.63;6.53;;;7.90;99.90;;;-141.84;78.60;19224.50;5031588;28;20681;-55
2023/02/22 01:43:51;;;;;;;11.03;7.73;;;7.90;99.90;;;-141.84;78.58;19224.50;5031265;28;20230;-53
2023/02/22 01:46:26;;;;;;;9.23;7.20;;;8.00;99.90;;;-141.84;78.67;19230.59;5031146;28;20225;-52
2023/02/22 01:49:01;;;;;;;8.57;7.10;;;8.00;99.90;;;-141.84;78.69;19224.50;5031132;28;20329;-52
2023/02/22 01:51:36;;;;;;;7.90;6.57;;;8.00;99.90;;;-141.84;79.12;19214.34;5031248;28;20235;-54
2023/02/22 01:54:12;;;;;;;8.10;6.30;;;8.00;99.90;;;-141.84;79.25;19210.28;5031142;28;20666;-54
2023/02/22 01:56:49;;;;;;;10.30;6.97;;;7.90;99.90;;;-141.84;79.54;19218.41;5031421;28;20823;-52
2023/02/22 01:59:18;;;;;;;10.67;7.70;;;7.90;99.90;;;-141.84;79.69;19179.78;5030954;28;20225;-52
2023/02/22 02:01:47;;;;;;;10.70;7.50;;;7.80;99.90;;;-141.84;80.42;19192.00;5030595;28;20233;-53
2023/02/22 02:04:24;;;;;;;10.97;7.10;;;7.80;99.90;;;-141.84;80.64;19169.63;5030679;28;20230;-50
2023/02/22 02:06:55;;;;;;;8.87;6.60;;;7.70;99.90;;;-141.84;80.80;19204.19;5030767;28;20263;-48
2023/02/22 02:09:34;;;;;;;9.57;7.40;;;7.70;99.90;;;-141.84;80.85;19183.84;5031009;28;20244;-53
2023/02/22 02:12:05;;;;;;;11.07;7.50;;;7.60;99.90;;;-141.84;81.36;19167.59;5030776;28;20194;-51
2023/02/22 02:14:39;;;;;;;9.30;7.10;;;7.60;99.90;;;-141.84;81.70;19141.19;5031153;28;20635;-54
2023/02/22 02:17:09;;;;;;;8.87;7.00;;;7.50;99.90;;;-141.84;81.98;19153.38;5030197;28;20328;-52
2023/02/22 02:19:55;;;;;;;10.03;7.50;;;7.40;99.90;;;-141.84;82.29;19159.47;5044541;28;20627;-52
2023/02/22 02:22:47;;;;;;;9.53;7.77;;;7.40;99.90;;;-141.84;82.36;19163.53;5050425;28;20240;-57
2023/02/22 02:25:59;;;;;;;10.27;7.67;;;7.30;99.90;;;-141.84;82.78;19112.75;5050318;28;20612;-55
2023/02/22 02:29:26;;;;;;;12.93;8.67;;;7.30;99.90;;;-141.84;83.07;19094.44;5050540;28;20240;-52
2023/02/22 02:32:26;;;;;;;14.33;8.93;;;7.10;99.90;;;-141.84;83.73;19092.41;5050045;28;20225;-56
2023/02/22 02:35:04;;;;;;;12.20;8.30;;;7.10;99.90;;;-141.84;84.16;19090.38;5050100;28;20229;-53
2023/02/22 02:37:46;;;;;;;10.73;8.20;;;7.00;99.90;;;-141.84;84.56;19100.53;5049964;28;20720;-50
2023/02/22 02:40:25;;;;;;;13.17;9.03;;;6.90;99.90;;;-141.84;84.62;19080.22;5050067;28;20716;-54
2023/02/22 02:43:01;;;;;;;11.77;8.23;;;6.90;99.90;;;-141.84;84.72;19084.28;5049939;28;20731;-49
2023/02/22 02:45:36;;;;;;;14.30;9.27;;;6.90;99.90;;;-141.84;84.82;19088.34;5050124;28;20229;-54
2023/02/22 02:48:10;;;;;;;11.03;8.37;;;6.80;99.90;;;-141.84;85.13;19094.44;5049056;28;20212;-57
2023/02/22 02:50:44;;;;;;;13.17;9.00;;;6.80;99.90;;;-141.84;85.33;19080.22;5050880;28;20192;-54
2023/02/22 02:53:17;;;;;;;14.13;8.93;;;6.70;99.90;;;-141.84;85.27;19078.19;5049903;28;20224;-53
2023/02/22 02:55:46;;;;;;;13.63;9.00;;;6.70;99.90;;;-141.84;85.49;19090.38;5050100;28;20233;-56
2023/02/22 02:58:20;;;;;;;12.33;8.97;;;6.70;99.90;;;-141.84;85.75;19074.13;5049660;28;20229;-52
2023/02/22 03:00:54;;;;;;;12.20;8.37;;;6.60;99.90;;;-141.84;86.02;19025.38;5049832;28;20256;-55
2023/02/22 03:04:14;;;;;;;12.50;8.90;;;6.60;99.90;;;-141.84;86.56;19053.81;5049631;28;20225;-53
2023/02/22 03:07:32;;;;;;;15.40;8.90;;;6.60;99.90;;;-141.84;86.89;19029.44;5037807;28;20654;-52
2023/02/22 03:10:20;;;;;;;12.53;8.30;;;6.50;99.90;;;-141.84;86.71;19066.00;4987690;28;20311;-55
2023/02/22 03:13:04;;;;;;;13.20;9.17;;;6.60;99.90;;;-141.84;86.83;19082.25;5049832;28;20229;-53
2023/02/22 03:15:44;;;;;;;17.17;9.53;;;6.70;99.90;;;-141.84;85.79;19086.31;5049560;28;20227;-55
2023/02/22 03:18:27;;;;;;;12.60;8.70;;;6.80;99.90;;;-141.84;84.76;19092.41;5049431;28;20240;-53
2023/02/22 03:21:10;;;;;;;13.90;9.37;;;7.00;99.90;;;-141.84;84.11;19098.50;5050241;28;20284;-54
2023/02/22 03:23:46;;;;;;;12.53;8.73;;;7.10;99.90;;;-141.84;83.98;19094.44;5049786;28;20636;-54
2023/02/22 03:26:23;;;;;;;12.00;8.37;;;7.20;99.90;;;-141.84;84.00;19100.53;5049446;28;20599;-54
2023/02/22 03:28:55;;;;;;;13.07;8.80;;;7.20;99.90;;;-141.84;84.13;19135.09;5049479;28;20229;-54
2023/02/22 03:31:29;;;;;;;13.03;8.10;;;7.30;99.90;;;-141.84;84.17;19084.28;5049384;28;20235;-55
2023/02/22 03:34:04;;;;;;;12.47;7.43;;;7.40;99.90;;;-141.84;83.93;19169.63;5049195;28;20225;-56
2023/02/22 03:36:39;;;;;;;13.23;8.60;;;7.40;99.90;;;-141.84;83.54;19112.75;5049676;28;20237;-58
2023/02/22 03:39:14;;;;;;;12.70;8.87;;;7.50;99.90;;;-141.84;83.43;19086.31;5049173;28;20642;-53
2023/02/22 03:41:50;;;;;;;13.37;9.07;;;7.50;99.90;;;-141.84;83.22;19145.25;5050089;28;20200;-53
2023/02/22 03:44:26;;;;;;;13.70;8.60;;;7.60;99.90;;;-141.84;83.31;19135.09;5049309;28;20235;-53
2023/02/22 03:47:01;;;;;;;13.37;8.87;;;7.60;99.90;;;-141.84;83.02;19114.78;5049137;28;20240;-54
2023/02/22 03:49:37;;;;;;;13.23;9.60;;;7.70;99.90;;;-141.84;82.41;19135.09;5049006;28;20228;-53
2023/02/22 03:52:08;;;;;;;13.60;9.67;;;7.70;99.90;;;-141.84;81.54;19145.25;5049309;28;20229;-53
2023/02/22 03:54:37;;;;;;;13.27;9.53;;;7.80;99.90;;;-141.84;81.40;19169.63;5049261;28;20225;-54
2023/02/22 03:57:13;;;;;;;14.63;9.53;;;7.90;99.90;;;-141.84;81.58;19179.78;5049409;28;20198;-54
2023/02/22 03:59:42;;;;;;;12.80;9.33;;;7.90;99.90;;;-141.84;81.79;19171.66;5052196;28;20189;-53
2023/02/22 04:02:11;;;;;;;13.73;9.70;;;7.90;99.90;;;-141.84;81.13;19163.53;5052879;28;20630;-55
2023/02/22 04:04:39;;;;;;;15.57;10.13;;;8.00;99.90;;;-141.84;80.65;19173.69;5052548;28;20229;-53
2023/02/22 04:07:09;;;;;;;15.43;9.93;;;8.00;99.90;;;-141.84;80.38;19187.91;5053083;28;20230;-53
2023/02/22 04:09:37;;;;;;;12.43;9.50;;;8.10;99.90;;;-141.84;80.00;19175.72;5053086;28;20229;-53
2023/02/22 04:12:05;;;;;;;15.53;10.17;;;8.10;99.90;;;-141.84;79.50;19224.50;5052810;28;20690;-52
2023/02/22 04:14:34;;;;;;;13.93;9.63;;;8.20;99.90;;;-141.84;79.56;19210.28;5053409;28;20220;-52
2023/02/22 04:17:02;;;;;;;13.93;9.77;;;8.20;99.90;;;-141.84;79.26;19192.00;5052494;28;20240;-62
2023/02/22 04:19:30;;;;;;;12.47;9.43;;;8.20;99.90;;;-141.84;79.70;19167.59;5052666;28;20236;-61
2023/02/22 04:21:58;;;;;;;14.57;9.20;;;8.20;99.90;;;-141.84;79.76;19206.22;5052917;28;20221;-62
2023/02/22 04:24:28;;;;;;;13.13;8.90;;;8.20;99.90;;;-141.84;79.45;19218.41;5052753;28;20248;-62
2023/02/22 04:26:57;;;;;;;12.17;9.00;;;8.20;99.90;;;-141.84;79.06;19185.88;5053060;28;20591;-62
2023/02/22 04:29:25;;;;;;;10.80;8.10;;;8.20;99.90;;;-141.84;79.24;19159.47;5053131;28;20216;-62
2023/02/22 04:31:53;;;;;;;12.43;8.10;;;8.20;99.90;;;-141.84;79.86;19179.78;5052471;28;20246;-64
2023/02/22 04:34:22;;;;;;;12.90;8.83;;;8.10;99.90;;;-141.84;80.28;19187.91;5052420;28;20317;-61
2023/02/22 04:36:51;;;;;;;11.90;8.80;;;8.10;99.90;;;-141.84;80.12;19185.88;5052823;28;20227;-61
2023/02/22 04:39:19;;;;;;;9.90;8.07;;;8.10;99.90;;;-141.84;80.02;19149.31;5052335;28;20313;-61
2023/02/22 04:41:49;;;;;;;11.93;8.83;;;8.10;99.90;;;-141.84;79.49;19196.06;5053178;28;20197;-61
2023/02/22 04:44:17;;;;;;;12.57;8.93;;;8.10;99.90;;;-141.84;79.49;19185.88;5052105;28;20229;-62
2023/02/22 04:46:46;;;;;;;13.03;8.80;;;8.10;99.90;;;-141.84;79.31;19159.47;5052040;28;20233;-62
2023/02/22 04:49:14;;;;;;;11.57;8.33;;;8.10;99.90;;;-141.84;79.65;19187.91;5051902;28;20225;-62
2023/02/22 04:51:42;;;;;;;12.57;8.60;;;8.10;99.90;;;-141.84;79.65;19204.19;5051953;28;20225;-61
2023/02/22 04:54:11;;;;;;;11.60;8.47;;;8.10;99.90;;;-141.84;80.02;19196.06;5051976;28;20208;-63
2023/02/22 04:56:39;;;;;;;12.10;9.00;;;8.10;99.90;;;-141.84;80.10;19181.81;5052564;28;20201;-62
2023/02/22 04:59:09;;;;;;;13.63;9.50;;;8.00;99.90;;;-141.84;79.34;19202.16;5052080;28;20232;-63
2023/02/22 05:01:38;;;;;;;13.13;9.00;;;8.10;99.90;;;-141.84;79.49;19204.19;5051768;28;20228;-63
2023/02/22 05:04:08;;;;;;;12.70;9.00;;;8.10;99.90;;;-141.84;79.17;19226.53;5051583;28;20228;-62
2023/02/22 05:06:36;;;;;;;14.37;9.63;;;8.10;99.90;;;-141.84;79.10;19187.91;5051881;28;20237;-62
2023/02/22 05:09:04;;;;;;;14.97;10.27;;;8.10;99.90;;;-141.84;79.51;19210.28;5052026;28;20205;-61
2023/02/22 05:11:32;;;;;;;12.87;9.27;;;8.10;99.90;;;-141.84;79.89;19212.31;5052410;28;20574;-61
2023/02/22 05:14:01;;;;;;;14.07;9.43;;;8.10;99.90;;;-141.84;79.89;19196.06;5052025;28;20228;-62
2023/02/22 05:16:30;;;;;;;14.40;9.90;;;8.10;99.90;;;-141.84;79.72;19198.09;5051530;28;20251;-53
2023/02/22 05:18:58;;;;;;;16.67;9.97;;;8.10;99.90;;;-141.84;79.67;19208.25;5051732;28;20221;-56
2023/02/22 05:21:27;;;;;;;13.60;9.63;;;8.10;99.90;;;-141.84;79.99;19192.00;5051691;28;20221;-54
2023/02/22 05:23:56;;;;;;;13.50;9.77;;;8.20;99.90;;;-141.84;79.93;19192.00;5052000;28;20673;-52
2023/02/22 05:26:24;;;;;;;15.73;10.03;;;8.10;99.90;;;-141.84;80.02;19187.91;5051754;28;20233;-54
2023/02/22 05:28:52;;;;;;;12.70;9.53;;;8.20;99.90;;;-141.84;80.07;19177.75;5051868;28;20264;-55
2023/02/22 05:31:20;;;;;;;16.67;11.30;;;8.20;99.90;;;-141.84;79.93;19214.34;5051408;28;20256;-57
2023/02/22 05:33:50;;;;;;;14.73;10.47;;;8.20;99.90;;;-141.84;80.24;19177.75;5051212;28;20670;-53
2023/02/22 05:36:18;;;;;;;15.27;10.73;;;8.20;99.90;;;-141.84;80.09;19175.72;5051615;28;20275;-55
2023/02/22 05:38:46;;;;;;;16.30;10.93;;;8.20;99.90;;;-141.84;79.88;19198.09;5052332;28;20202;-53
2023/02/22 05:41:14;;;;;;;15.97;10.03;;;8.20;99.90;;;-141.84;80.07;19169.63;5050961;28;20229;-54
2023/02/22 05:43:43;;;;;;;15.33;9.90;;;8.20;99.90;;;-141.84;80.14;19206.22;5051073;28;20308;-52
2023/02/22 05:46:11;;;;;;;14.87;10.10;;;8.20;99.90;;;-141.84;79.71;19200.13;5050984;28;20626;-54
2023/02/22 05:48:39;;;;;;;16.90;11.23;;;8.30;99.90;;;-141.84;79.84;19204.19;5050757;28;20229;-54
2023/02/22 05:51:09;;;;;;;15.00;10.60;;;8.30;99.90;;;-141.84;79.72;19204.19;5051121;28;20205;-51
2023/02/22 05:53:37;;;;;;;17.03;10.70;;;8.30;99.90;;;-141.84;80.04;19181.81;5051491;28;20225;-55
2023/02/22 05:56:06;;;;;;;15.27;10.13;;;8.30;99.90;;;-141.84;80.13;19187.91;5050933;28;20221;-53
2023/02/22 05:58:34;;;;;;;16.47;10.70;;;8.30;99.90;;;-141.84;79.89;19192.00;5050893;28;20233;-54
2023/02/22 06:01:03;;;;;;;15.73;10.60;;;8.30;99.90;;;-141.84;79.50;19198.09;5050648;28;20233;-52
2023/02/22 06:03:31;;;;;;;16.03;10.53;;;8.30;99.90;;;-141.84;79.43;19185.88;5050562;28;20235;-54
2023/02/22 06:05:59;;;;;;;15.70;10.07;;;8.30;99.90;;;-141.84;79.47;19238.72;5050889;28;20228;-54
2023/02/22 06:08:28;;;;;;;15.03;9.80;;;8.30;99.90;;;-141.84;79.39;19216.38;5051373;28;20224;-53
2023/02/22 06:10:56;;;;;;;15.53;10.17;;;8.30;99.90;;;-141.84;79.63;19200.13;5050487;28;20233;-51
2023/02/22 06:13:25;;;;;;;15.57;10.63;;;8.30;99.90;;;-141.84;79.77;19196.06;5050586;28;20231;-55
2023/02/22 06:15:53;;;;;;;15.77;10.33;;;8.30;99.90;;;-141.84;79.38;19179.78;5050272;28;20237;-52
2023/02/22 06:18:21;;;;;;;14.73;10.43;;;8.30;99.90;;;-141.84;79.39;19185.88;5050250;28;20225;-53
2023/02/22 06:20:49;;;;;;;16.80;10.53;;;8.30;99.90;;;-141.84;79.68;19218.41;5050784;28;20227;-54
2023/02/22 06:23:17;;;;;;;15.40;11.10;;;8.30;99.90;;;-141.84;79.68;19177.75;5049997;28;20736;-53
2023/02/22 06:25:48;;;;;;;16.37;10.67;;;8.30;99.90;;;-141.84;79.48;19194.03;5050344;28;20234;-52
2023/02/22 06:28:16;;;;;;;18.73;11.07;;;8.30;99.90;;;-141.84;79.68;19196.06;5050525;28;20232;-54
2023/02/22 06:30:44;;;;;;;16.23;10.87;;;8.30;99.90;;;-141.84;79.74;19206.22;5050372;28;20228;-55
2023/02/22 06:33:13;;;;;;;16.33;10.43;;;8.40;99.90;;;-141.84;79.21;19200.13;5050272;28;20263;-51
2023/02/22 06:35:41;;;;;;;15.20;10.33;;;8.40;99.90;;;-141.84;79.47;19196.06;5050310;28;20739;-54
2023/02/22 06:38:09;;;;;;;20.33;11.20;;;8.40;99.90;;;-141.84;79.15;19236.69;5049880;28;20221;-55
2023/02/22 06:40:37;;;;;;;16.17;10.33;;;8.50;99.90;;;-141.84;78.89;19212.31;5050009;28;20229;-57
2023/02/22 06:43:07;;;;;;;17.00;10.70;;;8.50;99.90;;;-141.84;79.19;19242.78;5049907;28;20462;-55
2023/02/22 06:45:35;;;;;;;15.50;10.70;;;8.50;99.90;;;-141.84;79.07;19206.22;5050142;28;20225;-55
2023/02/22 06:48:03;;;;;;;19.47;12.13;;;8.50;99.90;;;-141.84;79.52;19218.41;5049943;28;20292;-54
2023/02/22 06:50:32;;;;;;;13.73;10.53;;;8.50;99.90;;;-141.84;79.45;19220.44;5050451;28;20559;-55
2023/02/22 06:53:03;;;;;;;14.73;11.03;;;8.60;99.90;;;-141.84;79.56;19230.59;5049946;28;20309;-55
2023/02/22 06:55:34;;;;;;;19.30;11.27;;;8.60;99.90;;;-141.84;79.30;19206.22;5049890;28;20229;-55
2023/02/22 06:58:04;;;;;;;18.37;11.23;;;8.60;99.90;;;-141.84;79.15;19226.53;5049812;28;20225;-56
2023/02/22 07:00:34;;;;;;;14.97;10.37;;;8.60;99.90;;;-141.84;79.35;19222.47;5049762;28;20467;-53
2023/02/22 07:03:04;;;;;;;15.13;10.37;;;8.70;99.90;;;-141.84;79.56;19224.50;5049591;28;20665;-53
2023/02/22 07:05:33;;;;;;;14.73;10.50;;;8.70;99.90;;;-141.84;79.24;19242.78;5050280;28;20201;-57
2023/02/22 07:08:07;;;;;;;17.47;10.67;;;8.70;99.90;;;-141.84;78.91;19224.50;5049229;28;20236;-55
2023/02/22 07:10:37;;;;;;;13.00;9.77;;;8.70;99.90;;;-141.84;78.54;19246.84;5049780;28;20228;-56
2023/02/22 07:13:08;;;;;;;17.07;11.00;;;8.80;99.90;;;-141.84;78.50;19228.56;5049849;28;20602;-55
2023/02/22 07:15:37;;;;;;;17.07;10.80;;;8.80;99.90;;;-141.84;78.09;19244.81;5049720;28;20249;-54
2023/02/22 07:18:06;;;;;;;17.67;11.20;;;8.80;99.90;;;-141.84;77.80;19220.44;5049040;28;20206;-53
2023/02/22 07:20:35;;;;;;;15.77;10.63;;;8.90;99.90;;;-141.84;78.03;19277.34;5049862;28;20566;-53
2023/02/22 07:23:03;;;;;;;16.67;10.93;;;8.90;99.90;;;-141.84;76.77;19299.69;5049320;28;20312;-55
2023/02/22 07:25:32;;;;;;;14.90;10.50;;;9.00;99.90;;;-141.84;77.18;19257.00;5049375;28;20279;-54
2023/02/22 07:28:01;;;;;;;14.77;10.67;;;9.00;99.90;;;-141.84;77.37;19273.28;5049345;28;20229;-54
2023/02/22 07:30:32;;;;;;;16.57;10.80;;;9.00;99.90;;;-141.84;77.02;19248.88;5049541;28;20229;-55
2023/02/22 07:33:05;;;;;;;14.33;9.93;;;9.00;99.90;;;-141.84;77.20;19301.72;5051109;28;20225;-55
2023/02/22 07:35:36;;;;;;;17.63;11.43;;;9.00;99.90;;;-141.84;76.29;19263.09;5049835;28;20228;-54
2023/02/22 07:38:06;;;;;;;16.10;10.40;;;9.10;99.90;;;-141.84;76.14;19295.63;5033067;28;20229;-53
2023/02/22 07:40:36;;;;;;;16.03;10.77;;;9.20;99.90;;;-141.84;75.83;19315.94;5033694;28;20261;-54
2023/02/22 07:43:14;;;;;;;14.33;10.07;;;9.20;99.90;;;-141.84;76.29;19336.25;5033194;28;20284;-53
2023/02/22 07:45:43;;;;;;;16.37;9.93;;;9.20;99.90;;;-141.84;75.79;19313.91;5033408;28;20225;-55
2023/02/22 07:48:14;;;;;;;15.13;11.03;;;9.30;99.90;;;-141.84;76.11;19299.69;5044580;28;20319;-54
2023/02/22 07:50:44;;;;;;;13.63;10.40;;;9.30;99.90;;;-141.84;76.04;19309.84;5053491;28;20186;-56
2023/02/22 07:53:18;;;;;;;13.57;10.33;;;9.30;99.90;;;-141.84;75.86;19289.53;5052989;28;20232;-54
2023/02/22 07:55:47;;;;;;;14.80;9.77;;;9.40;99.90;;;-141.84;75.61;19289.53;5052860;28;20225;-56
2023/02/22 07:58:16;;;;;;;14.20;10.57;;;9.40;99.90;;;-141.84;75.22;19291.56;5052947;28;20355;-54
2023/02/22 08:00:47;;;;;;;15.50;10.93;;;9.40;99.90;;;-141.84;74.98;19342.34;5052877;28;20229;-55
2023/02/22 08:03:19;;;;;;;16.13;10.17;;;9.40;99.90;;;-141.84;73.99;19305.78;5052857;28;20231;-52
2023/02/22 08:05:50;;;;;;;13.90;9.90;;;9.50;99.90;;;-141.84;74.50;19324.06;5049777;28;20336;-55
2023/02/22 08:08:19;;;;;;;13.13;9.90;;;9.50;99.90;;;-141.84;74.85;19356.59;5033473;28;20229;-54
2023/02/22 08:10:48;;;;;;;16.30;11.03;;;9.50;99.90;;;-141.84;74.38;19307.81;5032629;28;20702;-54
2023/02/22 08:13:17;;;;;;;18.60;11.07;;;9.50;99.90;;;-141.84;74.54;19342.34;5032563;28;20729;-54
2023/02/22 08:15:46;;;;;;;14.00;10.23;;;9.50;99.90;;;-141.84;73.57;19344.41;5032309;28;20233;-53
2023/02/22 08:18:19;;;;;;;13.50;9.57;;;9.50;99.90;;;-141.84;73.25;19370.81;5044513;28;20205;-50
2023/02/22 08:20:50;;;;;;;15.30;10.17;;;9.60;99.90;;;-141.84;73.34;19354.56;5053038;28;20205;-52
2023/02/22 08:23:22;;;;;;;13.33;9.77;;;9.60;99.90;;;-141.84;73.73;19364.72;5052140;28;20263;-54
2023/02/22 08:25:50;;;;;;;15.17;9.30;;;9.70;99.90;;;-141.84;73.57;19348.47;5052277;28;20252;-54
2023/02/22 08:28:22;;;;;;;15.17;9.90;;;9.70;99.90;;;-141.84;73.07;19362.69;5052431;28;20225;-53
2023/02/22 08:30:51;;;;;;;17.00;12.00;;;9.70;99.90;;;-141.84;72.18;19407.38;5052349;28;20320;-55
2023/02/22 08:33:20;;;;;;;14.30;10.70;;;9.80;99.90;;;-141.84;72.05;19380.97;5052041;28;20233;-51
2023/02/22 08:35:50;;;;;;;13.67;9.87;;;9.80;99.90;;;-141.84;72.24;19387.06;5052517;28;20216;-55
2023/02/22 08:38:23;;;;;;;15.80;10.80;;;9.80;99.90;;;-141.84;72.17;19413.47;5051937;28;20687;-53
2023/02/22 08:40:51;;;;;;;18.27;11.20;;;9.90;99.90;;;-141.84;71.81;19411.44;5052039;28;20221;-55
2023/02/22 08:43:21;;;;;;;16.50;11.63;;;10.00;99.90;;;-141.84;71.17;19405.34;5051764;28;20240;-51
2023/02/22 08:45:50;;;;;;;16.57;11.60;;;10.00;99.90;;;-141.84;71.10;19399.25;5051162;28;20720;-56
2023/02/22 08:48:21;;;;;;;16.90;11.87;;;10.10;99.90;;;-141.84;70.26;19441.94;5051711;28;20252;-51
2023/02/22 08:50:49;;;;;;;15.27;10.47;;;10.20;99.90;;;-141.84;70.73;19403.31;5052164;28;20205;-52
2023/02/22 08:53:18;;;;;;;16.20;11.83;;;10.20;99.90;;;-141.84;70.41;19439.91;5051584;28;20271;-55
2023/02/22 08:55:46;;;;;;;16.37;11.97;;;10.20;99.90;;;-141.84;70.53;19450.06;5051670;28;20231;-52
2023/02/22 08:58:14;;;;;;;16.93;11.97;;;10.30;99.90;;;-141.84;69.96;19458.19;5051828;28;20235;-52
2023/02/22 09:00:43;;;;;;;16.43;11.57;;;10.40;99.90;;;-141.84;69.56;19500.88;5051502;28;20228;-52
2023/02/22 09:03:14;;;;;;;17.13;11.73;;;10.40;99.90;;;-141.84;69.56;19468.34;5051709;28;20244;-54
2023/02/22 09:05:44;;;;;;;15.83;11.37;;;10.50;99.90;;;-141.84;68.68;19504.94;5051710;28;20589;-54
2023/02/22 09:08:12;;;;;;;17.23;11.27;;;10.60;99.90;;;-141.84;68.20;19492.75;5051668;28;20221;-55
2023/02/22 09:10:41;;;;;;;17.57;11.77;;;10.60;99.90;;;-141.84;68.29;19484.59;5051344;28;20639;-52
2023/02/22 09:13:09;;;;;;;15.27;11.17;;;10.60;99.90;;;-141.84;67.80;19504.94;5051494;28;20604;-56
2023/02/22 09:15:38;;;;;;;15.53;11.03;;;10.60;99.90;;;-141.84;67.96;19498.84;5051262;28;20603;-55
2023/02/22 09:18:13;;;;;;;13.97;9.67;;;10.70;99.90;;;-141.84;68.41;19525.25;5044589;28;20220;-54
2023/02/22 09:20:42;;;;;;;14.30;10.57;;;10.70;99.90;;;-141.84;68.32;19502.91;5046356;28;20203;-53
2023/02/22 09:23:11;;;;;;;16.15;11.32;;;10.70;99.90;;;-141.84;67.92;19527.28;5051647;28;20233;-55
2023/02/22 09:25:39;;;;;;;16.03;11.47;;;10.80;99.90;;;-141.84;67.58;19517.13;5051441;28;20232;-54
2023/02/22 09:28:08;;;;;;;16.00;11.37;;;10.90;99.90;;;-141.84;67.19;19549.63;5051089;28;20237;-56
2023/02/22 09:30:37;;;;;;;15.27;10.90;;;11.00;99.90;;;-141.84;66.22;19537.44;5051140;28;20221;-54
2023/02/22 09:33:09;;;;;;;17.63;11.75;;;11.00;99.90;;;-141.84;65.90;19576.06;5050897;28;20206;-62
2023/02/22 09:35:41;;;;;;;16.43;11.47;;;11.10;99.90;;;-141.84;65.63;19559.81;5051338;28;20209;-63
2023/02/22 09:38:11;;;;;;;14.30;10.80;;;11.10;99.90;;;-141.84;65.97;19531.34;5050795;28;20225;-62
2023/02/22 09:40:45;;;;;;;14.43;11.60;;;11.10;99.90;;;-141.84;66.14;19578.09;5050731;28;20716;-62
2023/02/22 09:43:34;;;;;;;17.65;11.73;;;11.20;99.90;;;-141.84;65.33;19600.44;5050865;28;20229;-62
2023/02/22 09:46:21;;;;;;;14.40;10.67;;;11.10;99.90;;;-141.84;64.79;19582.16;5050909;28;20221;-62
2023/02/22 09:49:01;;;;;;;14.37;11.03;;;11.20;99.90;;;-141.84;65.04;19594.34;5050767;28;20253;-60
2023/02/22 09:51:40;;;;;;;14.73;11.10;;;11.30;99.90;;;-141.84;64.79;19606.53;5050946;28;20229;-63
2023/02/22 09:54:21;;;;;;;13.50;10.43;;;11.30;99.90;;;-141.84;64.26;19632.97;5050722;28;20224;-63
2023/02/22 09:56:56;;;;;;;13.87;9.83;;;11.30;99.90;;;-141.84;64.28;19630.94;5050266;28;20189;-62
2023/02/22 09:59:31;;;;;;;13.20;10.40;;;11.40;99.90;;;-141.84;64.13;19626.88;5050769;28;20204;-63
2023/02/22 10:02:20;;;;;;;14.17;9.90;;;11.40;99.90;;;-141.84;64.19;19608.56;5050260;28;20228;-64
2023/02/22 10:04:57;;;;;;;13.83;10.03;;;11.50;99.90;;;-141.84;64.13;19655.31;5050638;28;20225;-62
2023/02/22 10:07:33;;;;;;;16.30;10.80;;;11.50;99.90;;;-141.84;63.30;19651.25;5050263;28;20237;-64
2023/02/22 10:10:05;;;;;;;15.80;11.25;;;11.50;99.90;;;-141.84;62.98;19675.63;5050314;28;20225;-64
2023/02/22 10:12:48;;;;;;;15.43;11.10;;;11.60;99.90;;;-141.84;63.00;19645.16;5050670;28;20232;-65
2023/02/22 10:15:46;;;;;;;14.90;10.95;;;11.60;99.90;;;-141.84;63.17;19683.78;5050114;28;20193;-62
2023/02/22 10:18:59;;;;;;;14.10;10.57;;;11.70;99.90;;;-141.84;62.81;19687.84;5049786;28;20225;-60
2023/02/22 10:21:56;;;;;;;12.93;9.50;;;11.70;99.90;;;-141.84;63.23;19700.03;5044589;28;20225;-66
2023/02/22 10:24:41;;;;;;;13.60;9.93;;;11.80;99.90;;;-141.84;62.75;19758.97;5050355;28;20300;-62